NORTHEAST SUFFOLK  -  Rip Current Statement Rip Current Statement        NORTHERN NASSAU  -  Rip Current Statement Rip Current Statement        NORTHERN QUEENS  -  Rip Current Statement Rip Current Statement     Air Quality Alert Air Quality Alert        NORTHWEST SUFFOLK  -  Rip Current Statement Rip Current Statement        SOUTHEAST SUFFOLK  -  Rip Current Statement Rip Current Statement        SOUTHERN NASSAU  -  Rip Current Statement Rip Current Statement        SOUTHERN QUEENS  -  Rip Current Statement Rip Current Statement     Air Quality Alert Air Quality Alert        SOUTHWEST SUFFOLK  -  Rip Current Statement Rip Current Statement      

Active alerts

Northern Queens
  Details for Northern Queens Rip Current Statement  +1 additional alert
Southern Queens
  Details for Southern Queens Rip Current Statement  +1 additional alert
Northern Nassau
  Details for Northern Nassau Rip Current Statement
Southern Nassau
  Details for Southern Nassau Rip Current Statement
Northwest Suffolk
  Details for Northwest Suffolk Rip Current Statement
Southwest Suffolk
  Details for Southwest Suffolk Rip Current Statement
Northeast Suffolk
  Details for Northeast Suffolk Rip Current Statement
Southeast Suffolk
  Details for Southeast Suffolk Rip Current Statement


WXM80 ListenWXM80 Stop

You find our weather info also at:

UK Metoffice

WeatherCloud

Weather Underground

Northeastern Weather Network

AWEKAS

Citizen Weather Observer Program (CWOP)

HAMweather, WeatherForYou, PWS Weather


Weather Underground History page Text

Daily Summary for March 14, 2016 Units:  English    Metric   Both
« Previous Day
Next Day »
Daily Weekly Monthly Yearly Custom
  High: Low: Average:
Temperature: 51.6 °F 40.2 °F 43.6 °F
Dew Point: 42.2 °F 32.2 °F 39.1 °F
Humidity: 97 % 48 % 86 %
Wind Speed: 19.4 mph 0.0 mph 9.9 mph
Wind Gust: 27.6 mph - -
Wind:- - East
Pressure: 30.16 in 29.90 in -
Precipitation: 0.49 in    
Historical Graphs
 
 
Tabular Data for March 14, 2016
Time Temperature Dew Point Pressure Wind Wind Speed Wind Gust Humidity Rainfall Rate (Hourly)
00:00 51.5 °F 33.5 °F 30.10 in South 3.9 mph 8.1 mph 50 % 0.00 in
00:10 51.5 °F 33.5 °F 30.10 in SSE 4.2 mph 5.8 mph 50 % 0.00 in
00:15 51.5 °F 33.5 °F 30.10 in SE 2.5 mph 4.6 mph 50 % 0.00 in
00:20 51.5 °F 33.5 °F 30.10 in SSE 5.5 mph 9.2 mph 50 % 0.00 in
00:25 51.6 °F 33.6 °F 30.11 in SSE 4.2 mph 5.8 mph 50 % 0.00 in
00:30 51.5 °F 33.5 °F 30.10 in SSE 3.7 mph 6.0 mph 50 % 0.00 in
00:36 51.5 °F 32.4 °F 30.10 in SE 4.7 mph 9.2 mph 48 % 0.00 in
00:41 51.5 °F 33.0 °F 30.11 in SE 3.4 mph 5.8 mph 49 % 0.00 in
00:46 51.5 °F 33.0 °F 30.11 in SSE 1.6 mph 3.5 mph 49 % 0.00 in
00:51 51.5 °F 33.0 °F 30.11 in SSE 0.9 mph 3.5 mph 49 % 0.00 in
00:56 51.5 °F 33.0 °F 30.11 in Calm   1.2 mph 49 % 0.00 in
01:01 51.5 °F 32.4 °F 30.11 in SE 1.0 mph 3.5 mph 48 % 0.00 in
01:06 51.5 °F 33.0 °F 30.11 in SSE 2.8 mph 3.5 mph 49 % 0.00 in
01:11 51.5 °F 33.0 °F 30.11 in SSE 0.4 mph 1.2 mph 49 % 0.00 in
01:16 51.5 °F 33.0 °F 30.11 in SE 2.2 mph 3.5 mph 49 % 0.00 in
01:21 51.5 °F 32.4 °F 30.11 in ESE 0.6 mph 3.5 mph 48 % 0.00 in
01:27 51.4 °F 32.3 °F 30.11 in ESE 0.8 mph 1.2 mph 48 % 0.00 in
01:37 51.4 °F 33.9 °F 30.11 in Calm     51 % 0.00 in
01:42 51.4 °F 32.3 °F 30.11 in South 3.6 mph 5.8 mph 48 % 0.00 in
01:47 51.3 °F 33.3 °F 30.11 in Calm   2.3 mph 50 % 0.00 in
01:52 51.2 °F 33.2 °F 30.11 in SE 2.1 mph 3.5 mph 50 % 0.00 in
01:57 51.2 °F 32.2 °F 30.11 in SE 0.5 mph 3.5 mph 48 % 0.00 in
02:02 51.1 °F 32.6 °F 30.11 in East 1.9 mph 3.0 mph 49 % 0.00 in
02:07 51.0 °F 33.0 °F 30.11 in Calm   2.3 mph 50 % 0.00 in
02:12 51.0 °F 32.5 °F 30.11 in SE 3.2 mph 8.1 mph 49 % 0.00 in
02:18 50.9 °F 32.9 °F 30.11 in ESE 4.0 mph 6.9 mph 50 % 0.00 in
02:23 50.8 °F 33.3 °F 30.11 in East 3.8 mph 6.0 mph 51 % 0.00 in
02:28 50.8 °F 33.3 °F 30.11 in East 0.9 mph 5.8 mph 51 % 0.00 in
02:33 50.8 °F 33.8 °F 30.10 in East 2.4 mph 5.0 mph 52 % 0.00 in
02:38 50.7 °F 33.7 °F 30.10 in East 2.9 mph 5.8 mph 52 % 0.00 in
02:43 50.6 °F 34.1 °F 30.10 in East 2.4 mph 5.0 mph 53 % 0.00 in
02:48 50.5 °F 34.0 °F 30.10 in East 4.4 mph 6.9 mph 53 % 0.00 in
02:53 50.3 °F 36.1 °F 30.10 in ENE 2.1 mph 3.5 mph 58 % 0.00 in
02:58 49.8 °F 37.7 °F 30.10 in NE 3.7 mph 8.1 mph 63 % 0.00 in
03:03 49.0 °F 38.1 °F 30.10 in ENE 3.8 mph 5.8 mph 66 % 0.00 in
03:09 48.4 °F 38.3 °F 30.10 in ENE 4.2 mph 6.9 mph 68 % 0.00 in
03:14 47.9 °F 38.2 °F 30.10 in NE 2.2 mph 4.0 mph 69 % 0.00 in
03:19 47.7 °F 38.8 °F 30.10 in NE 1.9 mph 3.5 mph 71 % 0.00 in
03:24 47.4 °F 38.8 °F 30.10 in NE 1.1 mph 3.5 mph 72 % 0.00 in
03:34 47.2 °F 39.3 °F 30.10 in NE 3.4 mph 5.0 mph 74 % 0.00 in
03:39 46.9 °F 39.0 °F 30.10 in NE 3.6 mph 8.1 mph 74 % 0.00 in
03:44 46.7 °F 38.9 °F 30.10 in ENE 4.2 mph 5.8 mph 74 % 0.00 in
03:49 46.7 °F 39.2 °F 30.11 in ENE 2.5 mph 4.0 mph 75 % 0.00 in
03:54 46.4 °F 39.6 °F 30.11 in NE 5.5 mph 7.0 mph 77 % 0.00 in
04:00 46.1 °F 39.9 °F 30.11 in NE 5.3 mph 6.9 mph 79 % 0.00 in
04:05 45.6 °F 40.1 °F 30.11 in ENE 6.4 mph 8.0 mph 81 % 0.00 in
04:10 45.2 °F 39.7 °F 30.11 in ENE 6.6 mph 9.2 mph 81 % 0.00 in
04:15 45.0 °F 39.8 °F 30.11 in East 6.3 mph 8.1 mph 82 % 0.00 in
04:20 44.8 °F 39.6 °F 30.12 in ENE 6.1 mph 8.1 mph 82 % 0.00 in
04:25 44.7 °F 39.5 °F 30.11 in NE 7.0 mph 11.5 mph 82 % 0.00 in
04:30 44.6 °F 39.8 °F 30.11 in NE 6.5 mph 10.4 mph 83 % 0.00 in
04:35 44.5 °F 39.7 °F 30.11 in ENE 7.5 mph 10.4 mph 83 % 0.00 in
04:40 44.4 °F 39.9 °F 30.11 in ENE 4.9 mph 6.9 mph 84 % 0.00 in
04:45 44.4 °F 39.9 °F 30.11 in ENE 5.2 mph 8.1 mph 84 % 0.00 in
04:51 44.5 °F 40.0 °F 30.11 in ENE 4.9 mph 7.0 mph 84 % 0.00 in
04:56 44.5 °F 40.0 °F 30.12 in ENE 4.4 mph 8.1 mph 84 % 0.00 in
05:01 44.5 °F 40.0 °F 30.12 in ENE 4.7 mph 7.0 mph 84 % 0.00 in
05:06 44.5 °F 39.7 °F 30.12 in ENE 5.3 mph 9.2 mph 83 % 0.00 in
05:11 44.5 °F 39.7 °F 30.12 in ENE 5.6 mph 8.1 mph 83 % 0.00 in
05:16 44.5 °F 39.7 °F 30.11 in East 4.8 mph 8.1 mph 83 % 0.00 in
05:21 44.5 °F 39.3 °F 30.11 in ENE 5.6 mph 8.1 mph 82 % 0.00 in
05:26 44.5 °F 39.7 °F 30.11 in ENE 6.9 mph 9.2 mph 83 % 0.00 in
05:31 44.3 °F 39.5 °F 30.11 in ENE 8.7 mph 11.5 mph 83 % 0.00 in
05:36 44.3 °F 39.8 °F 30.11 in ENE 7.7 mph 12.7 mph 84 % 0.00 in
05:42 44.2 °F 40.0 °F 30.10 in ENE 5.7 mph 10.4 mph 85 % 0.00 in
05:47 44.1 °F 40.2 °F 30.10 in East 7.4 mph 10.4 mph 86 % 0.00 in
05:52 43.9 °F 40.3 °F 30.10 in East 7.4 mph 9.2 mph 87 % 0.00 in
05:57 43.7 °F 40.1 °F 30.10 in NE 8.1 mph 11.5 mph 87 % 0.00 in
06:02 43.7 °F 40.1 °F 30.10 in ENE 8.2 mph 11.0 mph 87 % 0.00 in
06:07 43.7 °F 40.1 °F 30.10 in East 9.6 mph 13.8 mph 87 % 0.00 in
06:17 43.6 °F 39.7 °F 30.10 in ENE 10.1 mph 11.5 mph 86 % 0.00 in
06:22 43.7 °F 39.8 °F 30.10 in East 10.3 mph 12.7 mph 86 % 0.00 in
06:27 43.7 °F 39.8 °F 30.10 in ENE 10.1 mph 13.8 mph 86 % 0.00 in
06:33 43.7 °F 39.8 °F 30.10 in East 8.3 mph 11.5 mph 86 % 0.00 in
06:38 43.6 °F 39.7 °F 30.10 in ENE 8.6 mph 11.5 mph 86 % 0.00 in
06:43 43.6 °F 39.7 °F 30.10 in East 8.9 mph 11.5 mph 86 % 0.00 in
06:48 43.6 °F 39.4 °F 30.10 in East 9.9 mph 13.8 mph 85 % 0.00 in
06:53 43.7 °F 39.5 °F 30.10 in East 9.2 mph 12.7 mph 85 % 0.00 in
06:58 43.7 °F 39.2 °F 30.10 in ENE 9.5 mph 11.5 mph 84 % 0.00 in
07:03 43.8 °F 39.3 °F 30.10 in East 9.5 mph 11.5 mph 84 % 0.00 in
07:08 43.8 °F 39.0 °F 30.10 in East 9.7 mph 13.8 mph 83 % 0.00 in
07:13 43.9 °F 39.1 °F 30.10 in ENE 8.8 mph 10.4 mph 83 % 0.00 in
07:18 43.9 °F 38.8 °F 30.11 in East 10.0 mph 12.7 mph 82 % 0.00 in
07:24 43.9 °F 38.8 °F 30.11 in ENE 9.7 mph 13.8 mph 82 % 0.00 in
07:34 43.9 °F 38.8 °F 30.11 in NE 9.6 mph 12.7 mph 82 % 0.00 in
07:39 43.9 °F 38.8 °F 30.11 in ENE 8.2 mph 11.5 mph 82 % 0.00 in
07:44 43.9 °F 38.4 °F 30.12 in NE 8.1 mph 12.7 mph 81 % 0.00 in
07:49 43.9 °F 38.4 °F 30.12 in East 10.2 mph 13.8 mph 81 % 0.00 in
07:54 43.9 °F 38.4 °F 30.12 in ENE 9.7 mph 11.5 mph 81 % 0.00 in
07:59 43.8 °F 39.0 °F 30.13 in East 9.5 mph 15.0 mph 83 % 0.00 in
08:04 43.6 °F 39.1 °F 30.12 in NE 9.8 mph 13.0 mph 84 % 0.00 in
08:09 43.3 °F 39.1 °F 30.12 in ENE 10.5 mph 13.8 mph 85 % 0.00 in
08:15 43.0 °F 39.1 °F 30.12 in ENE 9.8 mph 15.0 mph 86 % 0.00 in
08:20 42.8 °F 39.5 °F 30.12 in ENE 10.0 mph 15.0 mph 88 % 0.00 in
08:25 42.6 °F 39.3 °F 30.11 in ENE 10.9 mph 17.3 mph 88 % 0.01 in
08:30 42.5 °F 39.5 °F 30.12 in East 10.1 mph 15.0 mph 89 % 0.01 in
08:35 42.4 °F 39.4 °F 30.12 in ENE 9.8 mph 15.0 mph 89 % 0.01 in
08:40 42.4 °F 39.7 °F 30.12 in ENE 7.1 mph 10.4 mph 90 % 0.01 in
08:45 42.5 °F 39.8 °F 30.13 in East 7.7 mph 10.4 mph 90 % 0.01 in
08:50 42.6 °F 39.9 °F 30.14 in East 8.1 mph 10.4 mph 90 % 0.01 in
09:00 42.8 °F 39.8 °F 30.15 in NE 6.9 mph 9.2 mph 89 % 0.01 in
09:06 42.8 °F 39.5 °F 30.16 in ENE 8.7 mph 11.5 mph 88 % 0.01 in
09:11 42.9 °F 39.6 °F 30.16 in East 6.0 mph 9.2 mph 88 % 0.01 in
09:16 42.9 °F 39.6 °F 30.16 in East 5.8 mph 7.0 mph 88 % 0.01 in
09:21 42.8 °F 39.8 °F 30.16 in East 7.2 mph 9.2 mph 89 % 0.01 in
09:26 42.6 °F 39.6 °F 30.16 in East 7.8 mph 11.5 mph 89 % 0.01 in
09:31 42.4 °F 39.4 °F 30.16 in ENE 7.8 mph 10.0 mph 89 % 0.02 in
09:36 42.3 °F 39.6 °F 30.16 in ENE 7.5 mph 10.4 mph 90 % 0.03 in
09:41 42.2 °F 39.5 °F 30.16 in ENE 9.0 mph 10.4 mph 90 % 0.04 in
09:46 42.0 °F 39.6 °F 30.15 in NE 8.5 mph 10.4 mph 91 % 0.04 in
09:51 42.0 °F 39.6 °F 30.15 in East 7.5 mph 10.4 mph 91 % 0.05 in
09:57 42.0 °F 39.8 °F 30.15 in ENE 8.4 mph 11.5 mph 92 % 0.05 in
10:02 42.0 °F 39.8 °F 30.14 in East 8.7 mph 11.5 mph 92 % 0.06 in
10:07 42.0 °F 40.1 °F 30.14 in ENE 8.3 mph 10.4 mph 93 % 0.07 in
10:12 41.9 °F 40.0 °F 30.14 in East 9.6 mph 13.8 mph 93 % 0.07 in
10:17 42.0 °F 40.1 °F 30.13 in East 8.4 mph 10.4 mph 93 % 0.06 in
10:22 42.0 °F 40.1 °F 30.13 in ENE 9.3 mph 13.8 mph 93 % 0.07 in
10:27 42.0 °F 40.1 °F 30.13 in ENE 10.3 mph 13.8 mph 93 % 0.06 in
10:32 42.0 °F 40.1 °F 30.13 in East 10.6 mph 11.5 mph 93 % 0.05 in
10:37 42.2 °F 40.3 °F 30.13 in East 9.5 mph 15.0 mph 93 % 0.05 in
10:42 42.4 °F 40.5 °F 30.13 in ENE 8.4 mph 11.5 mph 93 % 0.04 in
10:48 42.7 °F 41.1 °F 30.13 in East 9.2 mph 11.5 mph 94 % 0.04 in
10:53 42.8 °F 40.9 °F 30.13 in ENE 9.5 mph 12.7 mph 93 % 0.03 in
10:58 42.9 °F 41.0 °F 30.13 in ESE 12.3 mph 18.4 mph 93 % 0.03 in
11:03 42.9 °F 40.7 °F 30.13 in ENE 8.2 mph 11.5 mph 92 % 0.02 in
11:08 42.9 °F 40.7 °F 30.14 in ENE 7.7 mph 10.4 mph 92 % 0.01 in
11:13 42.7 °F 40.3 °F 30.13 in ENE 8.8 mph 11.5 mph 91 % 0.01 in
11:18 42.5 °F 40.1 °F 30.12 in ENE 10.8 mph 13.8 mph 91 % 0.01 in
11:23 42.4 °F 40.0 °F 30.13 in East 10.0 mph 12.7 mph 91 % 0.00 in
11:28 42.3 °F 39.9 °F 30.12 in East 10.9 mph 15.0 mph 91 % 0.00 in
11:33 42.3 °F 39.9 °F 30.12 in ENE 8.6 mph 11.5 mph 91 % 0.00 in
11:39 42.4 °F 40.0 °F 30.11 in ENE 10.6 mph 12.0 mph 91 % 0.00 in
11:44 42.5 °F 40.1 °F 30.11 in ENE 9.4 mph 13.8 mph 91 % 0.00 in
11:49 42.7 °F 40.3 °F 30.11 in ENE 10.3 mph 13.0 mph 91 % 0.00 in
11:54 42.8 °F 40.4 °F 30.11 in East 11.0 mph 15.0 mph 91 % 0.00 in
11:59 42.8 °F 40.4 °F 30.11 in ENE 10.5 mph 13.8 mph 91 % 0.00 in
12:04 42.7 °F 40.0 °F 30.11 in East 10.9 mph 15.0 mph 90 % 0.00 in
12:09 42.7 °F 40.0 °F 30.11 in East 12.0 mph 15.0 mph 90 % 0.00 in
12:14 42.8 °F 40.1 °F 30.11 in ENE 10.4 mph 13.0 mph 90 % 0.00 in
12:25 42.8 °F 40.1 °F 30.11 in ENE 8.9 mph 12.7 mph 90 % 0.00 in
12:30 42.9 °F 40.2 °F 30.11 in East 9.3 mph 11.5 mph 90 % 0.00 in
12:35 43.1 °F 40.4 °F 30.11 in East 11.1 mph 12.7 mph 90 % 0.00 in
12:40 43.3 °F 40.3 °F 30.11 in East 10.7 mph 12.7 mph 89 % 0.00 in
12:45 43.3 °F 40.0 °F 30.11 in East 11.2 mph 13.8 mph 88 % 0.00 in
12:50 43.2 °F 39.9 °F 30.11 in ENE 11.5 mph 13.8 mph 88 % 0.00 in
12:55 43.1 °F 39.8 °F 30.10 in ENE 10.3 mph 15.0 mph 88 % 0.00 in
13:00 43.1 °F 39.8 °F 30.10 in ENE 9.8 mph 12.7 mph 88 % 0.00 in
13:05 43.1 °F 39.8 °F 30.10 in East 12.1 mph 16.1 mph 88 % 0.00 in
13:10 43.1 °F 39.8 °F 30.10 in ENE 11.6 mph 17.3 mph 88 % 0.00 in
13:16 43.1 °F 39.8 °F 30.09 in ENE 11.4 mph 13.8 mph 88 % 0.00 in
13:21 43.2 °F 39.9 °F 30.10 in ENE 13.1 mph 19.6 mph 88 % 0.00 in
13:31 42.8 °F 39.5 °F 30.10 in ENE 13.2 mph 18.4 mph 88 % 0.00 in
13:36 42.6 °F 39.3 °F 30.10 in East 13.2 mph 21.9 mph 88 % 0.00 in
13:41 42.2 °F 39.2 °F 30.10 in East 11.0 mph 15.0 mph 89 % 0.00 in
13:46 41.9 °F 39.2 °F 30.10 in ENE 11.3 mph 14.0 mph 90 % 0.01 in
13:51 41.6 °F 39.2 °F 30.10 in ENE 10.5 mph 12.7 mph 91 % 0.02 in
13:56 41.4 °F 39.0 °F 30.09 in ENE 11.8 mph 16.1 mph 91 % 0.03 in
14:01 41.2 °F 39.1 °F 30.09 in ENE 12.9 mph 17.3 mph 92 % 0.03 in
14:07 41.0 °F 38.9 °F 30.08 in ENE 15.2 mph 16.1 mph 92 % 0.04 in
14:12 40.8 °F 38.7 °F 30.07 in ENE 12.0 mph 21.9 mph 92 % 0.04 in
14:17 40.7 °F 38.8 °F 30.08 in ENE 12.0 mph 18.4 mph 93 % 0.04 in
14:22 40.6 °F 38.7 °F 30.08 in ENE 10.6 mph 13.8 mph 93 % 0.05 in
14:32 40.5 °F 38.9 °F 30.08 in ENE 11.1 mph 13.8 mph 94 % 0.06 in
14:37 40.4 °F 38.8 °F 30.08 in East 11.2 mph 15.0 mph 94 % 0.07 in
14:42 40.3 °F 38.7 °F 30.07 in NE 11.5 mph 18.4 mph 94 % 0.08 in
14:47 40.4 °F 38.8 °F 30.07 in ENE 12.9 mph 20.7 mph 94 % 0.07 in
14:52 40.4 °F 38.8 °F 30.07 in ENE 14.2 mph 18.4 mph 94 % 0.06 in
14:58 40.4 °F 38.8 °F 30.07 in ENE 14.5 mph 20.7 mph 94 % 0.05 in
15:03 40.3 °F 38.7 °F 30.07 in ENE 14.1 mph 20.7 mph 94 % 0.05 in
15:08 40.3 °F 38.7 °F 30.07 in ENE 13.0 mph 18.0 mph 94 % 0.05 in
15:13 40.3 °F 38.7 °F 30.06 in ENE 15.6 mph 22.0 mph 94 % 0.06 in
15:18 40.3 °F 38.7 °F 30.05 in ENE 16.6 mph 23.0 mph 94 % 0.07 in
15:28 40.2 °F 38.9 °F 30.05 in ENE 14.5 mph 19.0 mph 95 % 0.06 in
15:33 40.2 °F 38.9 °F 30.05 in ENE 15.6 mph 23.0 mph 95 % 0.05 in
15:38 40.2 °F 38.9 °F 30.05 in ENE 15.7 mph 21.9 mph 95 % 0.04 in
15:43 40.2 °F 38.9 °F 30.04 in NE 13.2 mph 18.0 mph 95 % 0.04 in
15:49 40.2 °F 38.9 °F 30.05 in ENE 13.1 mph 16.0 mph 95 % 0.04 in
15:54 40.2 °F 38.9 °F 30.05 in East 14.2 mph 19.0 mph 95 % 0.04 in
15:59 40.2 °F 38.9 °F 30.05 in East 12.3 mph 16.1 mph 95 % 0.04 in
16:04 40.2 °F 38.9 °F 30.05 in East 11.9 mph 17.3 mph 95 % 0.04 in
16:19 40.3 °F 39.0 °F 30.04 in East 12.6 mph 19.6 mph 95 % 0.01 in
16:24 40.4 °F 39.1 °F 30.04 in ENE 12.4 mph 16.1 mph 95 % 0.02 in
16:29 40.4 °F 39.1 °F 30.03 in ENE 14.2 mph 18.4 mph 95 % 0.02 in
16:34 40.4 °F 39.1 °F 30.03 in ENE 14.3 mph 19.6 mph 95 % 0.02 in
16:45 40.6 °F 39.3 °F 30.02 in East 12.1 mph 16.1 mph 95 % 0.01 in
16:50 40.7 °F 39.4 °F 30.02 in ENE 12.9 mph 18.4 mph 95 % 0.02 in
16:55 40.8 °F 39.5 °F 30.02 in NE 12.2 mph 17.3 mph 95 % 0.02 in
17:00 40.9 °F 39.6 °F 30.03 in ENE 12.8 mph 18.4 mph 95 % 0.02 in
17:05 41.0 °F 39.7 °F 30.03 in NE 14.6 mph 18.0 mph 95 % 0.02 in
17:10 41.1 °F 39.8 °F 30.03 in East 13.2 mph 15.0 mph 95 % 0.02 in
17:15 41.1 °F 39.8 °F 30.02 in ENE 13.8 mph 17.3 mph 95 % 0.02 in
17:20 41.1 °F 40.0 °F 30.02 in ENE 12.2 mph 21.9 mph 96 % 0.02 in
17:25 41.2 °F 40.1 °F 30.02 in NE 13.1 mph 17.3 mph 96 % 0.02 in
17:31 41.3 °F 40.2 °F 30.01 in ENE 13.8 mph 16.1 mph 96 % 0.02 in
17:36 41.3 °F 40.2 °F 30.01 in East 12.9 mph 20.7 mph 96 % 0.02 in
17:41 41.3 °F 40.2 °F 30.00 in East 12.9 mph 17.3 mph 96 % 0.02 in
17:46 41.3 °F 40.2 °F 30.00 in East 14.2 mph 24.2 mph 96 % 0.01 in
17:51 41.3 °F 40.2 °F 30.01 in ENE 13.5 mph 18.4 mph 96 % 0.01 in
17:56 41.4 °F 40.3 °F 30.01 in ENE 11.8 mph 16.1 mph 96 % 0.01 in
18:01 41.4 °F 40.3 °F 30.01 in ENE 14.8 mph 18.4 mph 96 % 0.01 in
18:06 41.4 °F 40.3 °F 30.00 in East 16.1 mph 21.9 mph 96 % 0.01 in
18:11 41.4 °F 40.3 °F 30.00 in ENE 16.6 mph 19.6 mph 96 % 0.01 in
18:16 41.4 °F 40.3 °F 29.99 in East 15.1 mph 19.6 mph 96 % 0.01 in
18:22 41.4 °F 40.3 °F 29.99 in ENE 16.4 mph 26.5 mph 96 % 0.01 in
18:27 41.4 °F 40.3 °F 29.98 in ENE 15.3 mph 21.0 mph 96 % 0.00 in
18:32 41.4 °F 40.3 °F 29.99 in ENE 14.8 mph 21.9 mph 96 % 0.00 in
18:42 41.5 °F 40.4 °F 29.99 in East 13.8 mph 18.4 mph 96 % 0.00 in
18:47 41.5 °F 40.4 °F 29.98 in ENE 15.2 mph 21.9 mph 96 % 0.00 in
18:52 41.4 °F 40.3 °F 29.99 in East 13.4 mph 17.3 mph 96 % 0.01 in
18:57 41.4 °F 40.3 °F 29.99 in ENE 15.1 mph 26.5 mph 96 % 0.02 in
19:02 41.4 °F 40.3 °F 29.99 in East 13.9 mph 21.9 mph 96 % 0.04 in
19:07 41.3 °F 40.2 °F 29.98 in ENE 13.9 mph 17.3 mph 96 % 0.05 in
19:13 41.4 °F 40.3 °F 29.98 in East 14.6 mph 19.0 mph 96 % 0.06 in
19:18 41.3 °F 40.2 °F 29.98 in East 11.8 mph 18.4 mph 96 % 0.06 in
19:23 41.3 °F 40.2 °F 29.98 in East 12.5 mph 18.4 mph 96 % 0.07 in
19:28 41.3 °F 40.2 °F 29.98 in East 12.7 mph 18.4 mph 96 % 0.07 in
19:33 41.3 °F 40.2 °F 29.97 in ENE 13.9 mph 18.4 mph 96 % 0.07 in
19:38 41.3 °F 40.2 °F 29.97 in ENE 13.8 mph 18.4 mph 96 % 0.08 in
19:43 41.3 °F 40.2 °F 29.97 in East 13.8 mph 18.0 mph 96 % 0.08 in
19:53 41.4 °F 40.3 °F 29.96 in East 13.8 mph 19.6 mph 96 % 0.07 in
20:04 41.4 °F 40.3 °F 29.96 in East 14.5 mph 20.0 mph 96 % 0.04 in
20:09 41.4 °F 40.3 °F 29.96 in East 14.3 mph 21.9 mph 96 % 0.04 in
20:14 41.5 °F 40.4 °F 29.95 in NE 14.1 mph 18.4 mph 96 % 0.04 in
20:19 41.5 °F 40.4 °F 29.95 in East 15.5 mph 24.2 mph 96 % 0.03 in
20:24 41.5 °F 40.4 °F 29.95 in ENE 13.5 mph 18.4 mph 96 % 0.03 in
20:29 41.5 °F 40.7 °F 29.95 in East 12.2 mph 15.0 mph 97 % 0.04 in
20:34 41.5 °F 40.7 °F 29.95 in ENE 14.5 mph 23.0 mph 97 % 0.04 in
20:39 41.5 °F 40.7 °F 29.94 in ENE 12.6 mph 17.3 mph 97 % 0.03 in
20:44 41.5 °F 40.7 °F 29.94 in East 13.9 mph 23.0 mph 97 % 0.04 in
20:49 41.6 °F 40.8 °F 29.94 in ENE 13.1 mph 17.3 mph 97 % 0.04 in
20:55 41.6 °F 40.8 °F 29.94 in ENE 14.0 mph 24.2 mph 97 % 0.03 in
21:00 41.6 °F 40.8 °F 29.94 in ENE 14.7 mph 18.4 mph 97 % 0.03 in
21:05 41.6 °F 40.8 °F 29.94 in ENE 12.7 mph 17.3 mph 97 % 0.04 in
21:10 41.6 °F 40.8 °F 29.95 in ENE 12.4 mph 15.0 mph 97 % 0.03 in
21:15 41.6 °F 40.8 °F 29.94 in ENE 10.9 mph 15.0 mph 97 % 0.03 in
21:20 41.6 °F 40.8 °F 29.94 in East 16.0 mph 18.4 mph 97 % 0.04 in
21:25 41.6 °F 40.8 °F 29.94 in ENE 13.4 mph 19.6 mph 97 % 0.04 in
21:30 41.6 °F 40.8 °F 29.94 in ENE 13.7 mph 19.6 mph 97 % 0.03 in
21:35 41.7 °F 40.9 °F 29.94 in ENE 12.5 mph 21.9 mph 97 % 0.04 in
21:40 41.7 °F 40.9 °F 29.94 in NE 14.7 mph 19.6 mph 97 % 0.04 in
21:51 41.7 °F 40.9 °F 29.94 in East 12.4 mph 18.4 mph 97 % 0.03 in
21:56 41.7 °F 40.9 °F 29.94 in ENE 11.4 mph 19.6 mph 97 % 0.04 in
22:01 41.8 °F 41.0 °F 29.93 in ENE 13.7 mph 19.6 mph 97 % 0.04 in
22:06 41.8 °F 41.0 °F 29.93 in ENE 13.0 mph 19.6 mph 97 % 0.03 in
22:11 41.8 °F 41.0 °F 29.93 in ENE 13.7 mph 18.4 mph 97 % 0.03 in
22:16 41.8 °F 41.0 °F 29.92 in ENE 16.9 mph 21.9 mph 97 % 0.03 in
22:21 41.9 °F 41.1 °F 29.92 in East 14.1 mph 24.2 mph 97 % 0.02 in
22:26 41.9 °F 41.1 °F 29.92 in ENE 13.2 mph 19.6 mph 97 % 0.02 in
22:31 41.9 °F 41.1 °F 29.92 in ENE 13.5 mph 18.4 mph 97 % 0.03 in
22:37 42.0 °F 41.2 °F 29.92 in ENE 15.9 mph 23.0 mph 97 % 0.02 in
22:42 42.0 °F 41.2 °F 29.93 in East 14.2 mph 19.6 mph 97 % 0.02 in
22:47 42.1 °F 41.3 °F 29.93 in NE 19.0 mph 27.6 mph 97 % 0.02 in
22:52 42.1 °F 41.3 °F 29.92 in ENE 15.1 mph 20.7 mph 97 % 0.01 in
22:57 42.1 °F 41.3 °F 29.92 in NE 14.8 mph 19.6 mph 97 % 0.01 in
23:02 42.2 °F 41.4 °F 29.92 in East 14.5 mph 22.0 mph 97 % 0.02 in
23:12 42.2 °F 41.4 °F 29.91 in ENE 15.9 mph 18.4 mph 97 % 0.06 in
23:17 42.2 °F 41.4 °F 29.91 in East 13.9 mph 21.9 mph 97 % 0.07 in
23:22 42.3 °F 41.5 °F 29.91 in ENE 16.2 mph 23.0 mph 97 % 0.07 in
23:28 42.4 °F 41.6 °F 29.91 in ENE 16.1 mph 24.2 mph 97 % 0.07 in
23:33 42.5 °F 41.7 °F 29.91 in ENE 14.2 mph 21.9 mph 97 % 0.07 in
23:38 42.6 °F 41.8 °F 29.90 in ENE 19.4 mph 26.5 mph 97 % 0.07 in
23:43 42.7 °F 41.9 °F 29.91 in ENE 17.0 mph 25.0 mph 97 % 0.08 in
23:48 42.8 °F 42.0 °F 29.90 in ENE 14.8 mph 22.0 mph 97 % 0.08 in
23:53 42.9 °F 42.1 °F 29.90 in ENE 14.8 mph 21.9 mph 97 % 0.08 in
23:58 43.0 °F 42.2 °F 29.90 in ENE 16.3 mph 23.0 mph 97 % 0.07 in
Crab Meadow Weather
Compliments of Weather Underground - 2.75 mb

Script developed by  Jim McMurry - jmcmurry@mwt.net Adapted for the template by  Wim van der Kuil - Leuven-Template.eu

Weather Terms: Tornado - A violently rotating column of air, from a thunderstorm, in contact with the ground.